sensor_id;sensor_type;location;lat;lon;timestamp;temperature;humidity
67586;SHT31;55785;47.946;20.540;2023-05-17T13:59:05;20.97;71.73
67586;SHT31;55785;47.946;20.540;2023-05-17T14:01:30;21.10;71.98
67586;SHT31;55785;47.946;20.540;2023-05-17T14:03:56;21.01;72.64
67586;SHT31;55785;47.946;20.540;2023-05-17T14:06:21;21.24;73.96
67586;SHT31;55785;47.946;20.540;2023-05-17T14:08:46;21.21;73.27
67586;SHT31;55785;47.946;20.540;2023-05-17T14:11:12;21.01;73.49
67586;SHT31;55785;47.946;20.540;2023-05-17T14:13:37;20.96;71.68
67586;SHT31;55785;47.946;20.540;2023-05-17T14:16:03;20.86;73.47
67586;SHT31;55785;47.946;20.540;2023-05-17T14:18:29;20.81;73.70
67586;SHT31;55785;47.946;20.540;2023-05-17T14:20:54;20.81;74.93
67586;SHT31;55785;47.946;20.540;2023-05-17T14:23:19;20.84;74.27
67586;SHT31;55785;47.946;20.540;2023-05-17T14:25:46;20.90;73.32
67586;SHT31;55785;47.946;20.540;2023-05-17T14:28:11;20.90;73.83
67586;SHT31;55785;47.946;20.540;2023-05-17T14:30:37;20.96;74.73
67586;SHT31;55785;47.946;20.540;2023-05-17T14:33:02;21.04;74.00
67586;SHT31;55785;47.946;20.540;2023-05-17T14:35:27;20.91;72.44
67586;SHT31;55785;47.946;20.540;2023-05-17T14:37:53;20.67;72.73
67586;SHT31;55785;47.946;20.540;2023-05-17T14:40:18;20.53;74.69
67586;SHT31;55785;47.946;20.540;2023-05-17T14:42:43;20.45;74.49
67586;SHT31;55785;47.946;20.540;2023-05-17T14:45:09;20.36;73.46
67586;SHT31;55785;47.946;20.540;2023-05-17T14:47:34;20.33;73.58
67586;SHT31;55785;47.946;20.540;2023-05-17T14:49:59;20.40;75.26
67586;SHT31;55785;47.946;20.540;2023-05-17T14:52:25;20.45;75.00
67586;SHT31;55785;47.946;20.540;2023-05-17T14:54:50;20.49;74.51
67586;SHT31;55785;47.946;20.540;2023-05-17T14:57:15;20.50;76.56
67586;SHT31;55785;47.946;20.540;2023-05-17T14:59:41;20.48;74.66
67586;SHT31;55785;47.946;20.540;2023-05-17T15:02:06;20.56;75.65
67586;SHT31;55785;47.946;20.540;2023-05-17T15:04:32;20.62;74.98
67586;SHT31;55785;47.946;20.540;2023-05-17T15:06:57;20.60;74.99
67586;SHT31;55785;47.946;20.540;2023-05-17T15:09:22;20.59;75.78
67586;SHT31;55785;47.946;20.540;2023-05-17T15:11:48;20.50;74.09
67586;SHT31;55785;47.946;20.540;2023-05-17T15:14:13;20.48;74.59
67586;SHT31;55785;47.946;20.540;2023-05-17T15:16:39;20.49;75.09
67586;SHT31;55785;47.946;20.540;2023-05-17T15:19:04;20.55;75.30
67586;SHT31;55785;47.946;20.540;2023-05-17T15:21:29;20.53;75.04
67586;SHT31;55785;47.946;20.540;2023-05-17T15:23:55;20.42;74.54
67586;SHT31;55785;47.946;20.540;2023-05-17T15:26:20;20.32;75.52
67586;SHT31;55785;47.946;20.540;2023-05-17T15:28:45;20.28;76.47
67586;SHT31;55785;47.946;20.540;2023-05-17T15:31:11;20.32;76.87
67586;SHT31;55785;47.946;20.540;2023-05-17T15:33:40;20.25;75.55
67586;SHT31;55785;47.946;20.540;2023-05-17T15:36:06;20.19;76.06
67586;SHT31;55785;47.946;20.540;2023-05-17T15:38:31;20.17;76.84
67586;SHT31;55785;47.946;20.540;2023-05-17T15:41:13;20.07;76.86
67586;SHT31;55785;47.946;20.540;2023-05-17T15:43:39;20.00;76.65
67586;SHT31;55785;47.946;20.540;2023-05-17T15:46:04;20.02;77.22
67586;SHT31;55785;47.946;20.540;2023-05-17T15:48:30;19.91;77.53
67586;SHT31;55785;47.946;20.540;2023-05-17T15:50:55;19.80;77.98
67586;SHT31;55785;47.946;20.540;2023-05-17T15:53:22;19.77;78.34
67586;SHT31;55785;47.946;20.540;2023-05-17T15:55:47;19.74;77.61
67586;SHT31;55785;47.946;20.540;2023-05-17T15:58:13;19.69;78.03
67586;SHT31;55785;47.946;20.540;2023-05-17T16:00:38;19.50;78.99
67586;SHT31;55785;47.946;20.540;2023-05-17T16:03:03;19.15;78.72
67586;SHT31;55785;47.946;20.540;2023-05-17T16:05:29;18.61;78.98
67586;SHT31;55785;47.946;20.540;2023-05-17T16:07:54;18.29;79.37
67586;SHT31;55785;47.946;20.540;2023-05-17T16:10:19;18.14;80.20
67586;SHT31;55785;47.946;20.540;2023-05-17T16:12:45;18.09;80.67
67586;SHT31;55785;47.946;20.540;2023-05-17T16:15:10;17.93;79.89
67586;SHT31;55785;47.946;20.540;2023-05-17T16:17:35;17.83;80.31
67586;SHT31;55785;47.946;20.540;2023-05-17T16:20:01;17.69;80.35
67586;SHT31;55785;47.946;20.540;2023-05-17T16:22:26;17.59;80.57
67586;SHT31;55785;47.946;20.540;2023-05-17T16:24:52;17.57;80.85
67586;SHT31;55785;47.946;20.540;2023-05-17T16:27:17;17.49;81.18
67586;SHT31;55785;47.946;20.540;2023-05-17T16:29:43;17.51;81.10
67586;SHT31;55785;47.946;20.540;2023-05-17T16:32:08;17.39;79.93
67586;SHT31;55785;47.946;20.540;2023-05-17T16:34:34;17.35;79.88
67586;SHT31;55785;47.946;20.540;2023-05-17T16:36:59;17.26;79.82
67586;SHT31;55785;47.946;20.540;2023-05-17T16:39:24;17.23;79.80
67586;SHT31;55785;47.946;20.540;2023-05-17T16:41:50;17.20;80.29
67586;SHT31;55785;47.946;20.540;2023-05-17T16:44:15;17.14;80.05
67586;SHT31;55785;47.946;20.540;2023-05-17T16:46:40;17.14;80.26
67586;SHT31;55785;47.946;20.540;2023-05-17T16:49:06;17.13;80.06
67586;SHT31;55785;47.946;20.540;2023-05-17T16:51:31;17.14;80.51
67586;SHT31;55785;47.946;20.540;2023-05-17T16:53:56;17.11;79.68
67586;SHT31;55785;47.946;20.540;2023-05-17T16:56:22;17.04;79.26
67586;SHT31;55785;47.946;20.540;2023-05-17T16:58:47;16.97;80.21
67586;SHT31;55785;47.946;20.540;2023-05-17T17:01:12;16.96;80.01
67586;SHT31;55785;47.946;20.540;2023-05-17T17:03:38;16.91;80.77
67586;SHT31;55785;47.946;20.540;2023-05-17T17:06:03;16.77;80.61
67586;SHT31;55785;47.946;20.540;2023-05-17T17:08:29;16.75;81.03
67586;SHT31;55785;47.946;20.540;2023-05-17T17:10:54;16.63;81.09
67586;SHT31;55785;47.946;20.540;2023-05-17T17:13:19;16.52;80.99
67586;SHT31;55785;47.946;20.540;2023-05-17T17:15:45;16.55;81.31
67586;SHT31;55785;47.946;20.540;2023-05-17T17:18:10;16.55;81.04
67586;SHT31;55785;47.946;20.540;2023-05-17T17:20:35;16.51;81.03
67586;SHT31;55785;47.946;20.540;2023-05-17T17:23:01;16.48;80.49
67586;SHT31;55785;47.946;20.540;2023-05-17T17:25:26;16.49;80.66
67586;SHT31;55785;47.946;20.540;2023-05-17T17:27:51;16.41;80.28
67586;SHT31;55785;47.946;20.540;2023-05-17T17:30:17;16.41;80.57
67586;SHT31;55785;47.946;20.540;2023-05-17T17:32:42;16.29;80.27
67586;SHT31;55785;47.946;20.540;2023-05-17T17:35:08;16.25;80.33
67586;SHT31;55785;47.946;20.540;2023-05-17T17:37:33;16.25;80.19
67586;SHT31;55785;47.946;20.540;2023-05-17T17:39:58;16.25;80.72
67586;SHT31;55785;47.946;20.540;2023-05-17T17:42:24;16.21;80.26
67586;SHT31;55785;47.946;20.540;2023-05-17T17:44:49;16.15;80.14
67586;SHT31;55785;47.946;20.540;2023-05-17T17:47:14;16.08;80.37
67586;SHT31;55785;47.946;20.540;2023-05-17T17:49:40;16.03;80.45
67586;SHT31;55785;47.946;20.540;2023-05-17T17:52:05;15.91;80.35
67586;SHT31;55785;47.946;20.540;2023-05-17T17:54:31;15.91;80.19
67586;SHT31;55785;47.946;20.540;2023-05-17T17:56:57;15.89;79.73
67586;SHT31;55785;47.946;20.540;2023-05-17T17:59:22;15.89;79.99
67586;SHT31;55785;47.946;20.540;2023-05-17T18:01:47;15.89;79.90
67586;SHT31;55785;47.946;20.540;2023-05-17T18:04:13;15.89;79.87
67586;SHT31;55785;47.946;20.540;2023-05-17T18:06:38;15.84;79.78
67586;SHT31;55785;47.946;20.540;2023-05-17T18:09:03;15.89;80.41
67586;SHT31;55785;47.946;20.540;2023-05-17T18:11:29;15.74;79.71
67586;SHT31;55785;47.946;20.540;2023-05-17T18:13:54;15.74;79.30
67586;SHT31;55785;47.946;20.540;2023-05-17T18:16:19;15.67;80.15
67586;SHT31;55785;47.946;20.540;2023-05-17T18:18:45;15.71;79.70
67586;SHT31;55785;47.946;20.540;2023-05-17T18:21:10;15.67;79.77
67586;SHT31;55785;47.946;20.540;2023-05-17T18:23:35;15.63;79.87
67586;SHT31;55785;47.946;20.540;2023-05-17T18:26:01;15.57;80.05
67586;SHT31;55785;47.946;20.540;2023-05-17T18:28:27;15.59;79.64
67586;SHT31;55785;47.946;20.540;2023-05-17T18:30:52;15.50;79.74
67586;SHT31;55785;47.946;20.540;2023-05-17T18:33:18;15.45;80.01
67586;SHT31;55785;47.946;20.540;2023-05-17T18:35:43;15.46;79.60
67586;SHT31;55785;47.946;20.540;2023-05-17T18:38:08;15.47;79.41
67586;SHT31;55785;47.946;20.540;2023-05-17T18:40:34;15.40;79.53
67586;SHT31;55785;47.946;20.540;2023-05-17T18:42:59;15.38;79.56
67586;SHT31;55785;47.946;20.540;2023-05-17T18:45:24;15.42;79.49
67586;SHT31;55785;47.946;20.540;2023-05-17T18:47:50;15.38;79.18
67586;SHT31;55785;47.946;20.540;2023-05-17T18:50:15;15.36;79.56
67586;SHT31;55785;47.946;20.540;2023-05-17T18:52:40;15.34;79.60
67586;SHT31;55785;47.946;20.540;2023-05-17T18:55:06;15.31;79.38
67586;SHT31;55785;47.946;20.540;2023-05-17T18:57:31;15.25;79.04
67586;SHT31;55785;47.946;20.540;2023-05-17T18:59:57;15.25;79.29
67586;SHT31;55785;47.946;20.540;2023-05-17T19:02:22;15.15;79.32
67586;SHT31;55785;47.946;20.540;2023-05-17T19:04:47;15.18;78.79
67586;SHT31;55785;47.946;20.540;2023-05-17T19:07:13;15.22;78.86
67586;SHT31;55785;47.946;20.540;2023-05-17T19:09:38;15.22;78.86
67586;SHT31;55785;47.946;20.540;2023-05-17T19:12:04;15.18;78.77
67586;SHT31;55785;47.946;20.540;2023-05-17T19:14:29;15.16;78.97
67586;SHT31;55785;47.946;20.540;2023-05-17T19:16:55;15.18;78.24
67586;SHT31;55785;47.946;20.540;2023-05-17T19:19:20;15.15;78.16
67586;SHT31;55785;47.946;20.540;2023-05-17T19:21:45;15.12;77.87
67586;SHT31;55785;47.946;20.540;2023-05-17T19:24:11;15.15;77.70
67586;SHT31;55785;47.946;20.540;2023-05-17T19:26:36;15.18;76.91
67586;SHT31;55785;47.946;20.540;2023-05-17T19:29:01;15.21;76.81
67586;SHT31;55785;47.946;20.540;2023-05-17T19:31:27;15.19;76.76
67586;SHT31;55785;47.946;20.540;2023-05-17T19:33:52;15.12;76.93
67586;SHT31;55785;47.946;20.540;2023-05-17T19:36:17;15.09;76.37
67586;SHT31;55785;47.946;20.540;2023-05-17T19:38:43;15.06;76.43
67586;SHT31;55785;47.946;20.540;2023-05-17T19:41:08;15.08;76.42
67586;SHT31;55785;47.946;20.540;2023-05-17T19:43:33;15.02;75.99
67586;SHT31;55785;47.946;20.540;2023-05-17T19:45:59;15.08;75.75
67586;SHT31;55785;47.946;20.540;2023-05-17T19:48:24;15.08;75.29
67586;SHT31;55785;47.946;20.540;2023-05-17T19:50:49;15.05;75.76
67586;SHT31;55785;47.946;20.540;2023-05-17T19:53:15;15.04;74.80
67586;SHT31;55785;47.946;20.540;2023-05-17T19:55:40;15.08;74.71
67586;SHT31;55785;47.946;20.540;2023-05-17T19:58:06;15.04;75.44
67586;SHT31;55785;47.946;20.540;2023-05-17T20:00:31;15.06;74.23
67586;SHT31;55785;47.946;20.540;2023-05-17T20:02:56;15.09;74.13
67586;SHT31;55785;47.946;20.540;2023-05-17T20:05:22;15.08;74.17
67586;SHT31;55785;47.946;20.540;2023-05-17T20:07:47;15.08;74.18
67586;SHT31;55785;47.946;20.540;2023-05-17T20:10:12;15.05;74.89
67586;SHT31;55785;47.946;20.540;2023-05-17T20:12:38;15.05;74.49
67586;SHT31;55785;47.946;20.540;2023-05-17T20:15:03;15.01;75.03
67586;SHT31;55785;47.946;20.540;2023-05-17T20:17:29;14.95;74.58
67586;SHT31;55785;47.946;20.540;2023-05-17T20:19:54;14.97;73.71
67586;SHT31;55785;47.946;20.540;2023-05-17T20:22:20;14.95;74.14
67586;SHT31;55785;47.946;20.540;2023-05-17T20:24:45;14.98;73.60
67586;SHT31;55785;47.946;20.540;2023-05-17T20:27:11;14.92;73.57
67586;SHT31;55785;47.946;20.540;2023-05-17T20:29:36;14.92;73.73
67586;SHT31;55785;47.946;20.540;2023-05-17T20:32:01;14.94;73.42
67586;SHT31;55785;47.946;20.540;2023-05-17T20:34:27;14.94;73.68
67586;SHT31;55785;47.946;20.540;2023-05-17T20:36:56;14.92;73.10
67586;SHT31;55785;47.946;20.540;2023-05-17T20:39:22;14.85;73.28
67586;SHT31;55785;47.946;20.540;2023-05-17T20:41:48;14.85;73.17
67586;SHT31;55785;47.946;20.540;2023-05-17T20:44:13;14.81;73.25
67586;SHT31;55785;47.946;20.540;2023-05-17T20:46:38;14.80;73.21
67586;SHT31;55785;47.946;20.540;2023-05-17T20:49:04;14.80;73.25
67586;SHT31;55785;47.946;20.540;2023-05-17T20:51:29;14.81;72.93
67586;SHT31;55785;47.946;20.540;2023-05-17T20:53:54;14.74;73.60
67586;SHT31;55785;47.946;20.540;2023-05-17T20:56:19;14.74;73.30
67586;SHT31;55785;47.946;20.540;2023-05-17T20:58:46;14.76;72.95
67586;SHT31;55785;47.946;20.540;2023-05-17T21:01:11;14.76;72.93
67586;SHT31;55785;47.946;20.540;2023-05-17T21:03:37;14.70;72.68
67586;SHT31;55785;47.946;20.540;2023-05-17T21:06:02;14.73;72.43
67586;SHT31;55785;47.946;20.540;2023-05-17T21:08:27;14.70;72.96
67586;SHT31;55785;47.946;20.540;2023-05-17T21:10:54;14.64;72.51
67586;SHT31;55785;47.946;20.540;2023-05-17T21:13:19;14.57;72.69
67586;SHT31;55785;47.946;20.540;2023-05-17T21:15:45;14.55;72.41
67586;SHT31;55785;47.946;20.540;2023-05-17T21:18:10;14.61;72.13
67586;SHT31;55785;47.946;20.540;2023-05-17T21:20:37;14.55;72.53
67586;SHT31;55785;47.946;20.540;2023-05-17T21:23:02;14.55;72.97
67586;SHT31;55785;47.946;20.540;2023-05-17T21:25:28;14.51;72.68
67586;SHT31;55785;47.946;20.540;2023-05-17T21:27:53;14.47;72.39
67586;SHT31;55785;47.946;20.540;2023-05-17T21:30:19;14.43;71.98
67586;SHT31;55785;47.946;20.540;2023-05-17T21:32:44;14.43;72.64
67586;SHT31;55785;47.946;20.540;2023-05-17T21:35:09;14.36;72.88
67586;SHT31;55785;47.946;20.540;2023-05-17T21:37:35;14.29;72.63
67586;SHT31;55785;47.946;20.540;2023-05-17T21:40:01;14.33;72.75
67586;SHT31;55785;47.946;20.540;2023-05-17T21:42:26;14.33;72.34
67586;SHT31;55785;47.946;20.540;2023-05-17T21:44:51;14.30;72.14
67586;SHT31;55785;47.946;20.540;2023-05-17T21:47:17;14.39;72.24
67586;SHT31;55785;47.946;20.540;2023-05-17T21:49:42;14.36;72.47
67586;SHT31;55785;47.946;20.540;2023-05-17T21:52:07;14.34;71.82
67586;SHT31;55785;47.946;20.540;2023-05-17T21:54:33;14.26;72.21
67586;SHT31;55785;47.946;20.540;2023-05-17T21:56:58;14.26;72.32
67586;SHT31;55785;47.946;20.540;2023-05-17T21:59:23;14.23;72.62
67586;SHT31;55785;47.946;20.540;2023-05-17T22:01:49;14.20;72.56
67586;SHT31;55785;47.946;20.540;2023-05-17T22:04:14;14.20;72.44
67586;SHT31;55785;47.946;20.540;2023-05-17T22:06:40;14.15;73.17
67586;SHT31;55785;47.946;20.540;2023-05-17T22:09:05;14.16;72.68
67586;SHT31;55785;47.946;20.540;2023-05-17T22:11:30;14.19;73.10
67586;SHT31;55785;47.946;20.540;2023-05-17T22:13:56;14.20;72.71
67586;SHT31;55785;47.946;20.540;2023-05-17T22:16:21;14.19;72.60
67586;SHT31;55785;47.946;20.540;2023-05-17T22:18:46;14.15;73.04
67586;SHT31;55785;47.946;20.540;2023-05-17T22:21:12;14.13;73.17
67586;SHT31;55785;47.946;20.540;2023-05-17T22:23:37;14.19;72.86
67586;SHT31;55785;47.946;20.540;2023-05-17T22:26:02;14.19;72.85
67586;SHT31;55785;47.946;20.540;2023-05-17T22:28:28;14.15;73.12
67586;SHT31;55785;47.946;20.540;2023-05-17T22:30:53;14.13;72.65
67586;SHT31;55785;47.946;20.540;2023-05-17T22:33:18;14.13;72.68
67586;SHT31;55785;47.946;20.540;2023-05-17T22:35:44;14.06;73.79
67586;SHT31;55785;47.946;20.540;2023-05-17T22:38:09;14.05;72.81
67586;SHT31;55785;47.946;20.540;2023-05-17T22:40:34;14.08;72.68
67586;SHT31;55785;47.946;20.540;2023-05-17T22:43:00;14.02;72.90
67586;SHT31;55785;47.946;20.540;2023-05-17T22:45:25;13.94;73.18
67586;SHT31;55785;47.946;20.540;2023-05-17T22:47:51;13.89;73.15
67586;SHT31;55785;47.946;20.540;2023-05-17T22:50:16;13.97;72.63
67586;SHT31;55785;47.946;20.540;2023-05-17T22:52:42;13.95;72.67
67586;SHT31;55785;47.946;20.540;2023-05-17T22:55:10;13.94;72.29
67586;SHT31;55785;47.946;20.540;2023-05-17T22:57:36;13.92;72.57
67586;SHT31;55785;47.946;20.540;2023-05-17T23:00:03;14.01;71.35
67586;SHT31;55785;47.946;20.540;2023-05-17T23:02:29;14.01;71.53
67586;SHT31;55785;47.946;20.540;2023-05-17T23:04:54;14.01;71.27
67586;SHT31;55785;47.946;20.540;2023-05-17T23:07:19;14.02;72.53
67586;SHT31;55785;47.946;20.540;2023-05-17T23:09:45;14.04;71.85
67586;SHT31;55785;47.946;20.540;2023-05-17T23:12:10;13.98;71.75
67586;SHT31;55785;47.946;20.540;2023-05-17T23:14:35;13.98;71.92
67586;SHT31;55785;47.946;20.540;2023-05-17T23:17:04;13.99;71.43
67586;SHT31;55785;47.946;20.540;2023-05-17T23:19:30;14.02;70.99
67586;SHT31;55785;47.946;20.540;2023-05-17T23:21:56;14.04;71.05
67586;SHT31;55785;47.946;20.540;2023-05-17T23:24:22;14.08;71.38
67586;SHT31;55785;47.946;20.540;2023-05-17T23:26:47;14.06;70.98
67586;SHT31;55785;47.946;20.540;2023-05-17T23:29:13;14.02;71.44
67586;SHT31;55785;47.946;20.540;2023-05-17T23:31:38;14.01;71.29
67586;SHT31;55785;47.946;20.540;2023-05-17T23:34:03;13.99;70.72
67586;SHT31;55785;47.946;20.540;2023-05-17T23:36:29;14.02;70.59
67586;SHT31;55785;47.946;20.540;2023-05-17T23:38:54;13.98;70.71
67586;SHT31;55785;47.946;20.540;2023-05-17T23:41:19;14.04;70.48
67586;SHT31;55785;47.946;20.540;2023-05-17T23:43:45;13.99;70.95
67586;SHT31;55785;47.946;20.540;2023-05-17T23:46:10;13.95;71.14
67586;SHT31;55785;47.946;20.540;2023-05-17T23:48:35;13.92;71.31
67586;SHT31;55785;47.946;20.540;2023-05-17T23:51:01;13.89;71.83
67586;SHT31;55785;47.946;20.540;2023-05-17T23:53:26;13.99;71.28
67586;SHT31;55785;47.946;20.540;2023-05-17T23:55:51;13.97;71.28
67586;SHT31;55785;47.946;20.540;2023-05-17T23:58:17;13.94;70.74
